Flood From: 22-02-2018 16:00 Until: 23-02-2018 16:00 warning for: Flood Level: Yellow info button

Although rather usual in this region, locally or potentially dangerous phenomena are expected. (such as local winds, summer thunderstorms, rising streams or high waves) Be aware and pay attention to the latest weather updates, especially if you carry out activities exposed to weather or close to a stream or shoreline. 


Meteo18 Weather Cam more information Meteo18 Weather Cam


Thunder radar more information blitzortung!


Rain radar more information rain snow radar


Visit our other weather sites:

Template documentation
and downloads

And another site



Weather Underground History page Text

Daily Summary for November 25, 2017 Units:  English    Metric   Both
« Previous Day
Next Day »
Daily Weekly Monthly Yearly Custom
  High: Low: Average:
Temperature: TemperatureC °F 1.3 °F 6 °F
Dew Point: DewpointC °F -0.1 °F 4.1 °F
Humidity: Humidity % 80 % 88 %
Wind Speed: WindSpeedKMH mph 0.0 mph 5.9 mph
Wind Gust: WindSpeedGustKMH mph - -
Wind:- - West
Pressure: PressurehPa in 1012.8 in -
Precipitation: 5.8 in    
Historical Graphs
 
 
Tabular Data for November 25, 2017
Time Temperature Dew Point Pressure Wind Wind Speed Wind Gust Humidity Rainfall Rate (Hourly)
TemperatureC °F DewpointC °F PressurehPa in Calm     Humidity % HourlyPrecipMM in
00:02 8.8 °F 7.7 °F 1013.8 in Calm   1.6 mph 93 % 1.5 in
00:12 8.6 °F 7.7 °F 1013.8 in Calm   1.6 mph 94 % 1.5 in
00:17 8.6 °F 7.7 °F 1013.8 in Calm   1.6 mph 94 % 1.5 in
00:22 8.6 °F 7.7 °F 1013.8 in Calm   1.6 mph 94 % 1.5 in
00:27 8.5 °F 7.6 °F 1013.8 in Calm   1.6 mph 94 % 1.5 in
00:32 8.4 °F 7.5 °F 1013.8 in Calm   1.6 mph 94 % 1.5 in
00:37 8.4 °F 7.5 °F 1013.8 in SW 1.6 mph 1.6 mph 94 % 1.5 in
00:42 8.3 °F 7.4 °F 1013.8 in Calm   1.6 mph 94 % 0.5 in
00:52 8.3 °F 7.4 °F 1013.4 in Calm   1.6 mph 94 % 0.5 in
01:02 8.2 °F 7.3 °F 1013.4 in Calm   3.2 mph 94 % 0.5 in
01:12 8.2 °F 7.4 °F 1013.1 in Calm   1.6 mph 95 % 0.5 in
01:17 8.2 °F 7.4 °F 1013.1 in Calm   3.2 mph 95 % 0.8 in
01:22 8.2 °F 7.4 °F 1012.8 in Calm   3.2 mph 95 % 0.8 in
01:32 8.1 °F 7.3 °F 1013.4 in WSW 4.8 mph 4.8 mph 95 % 1.0 in
01:42 8.0 °F 7.2 °F 1013.4 in SW 4.8 mph 6.4 mph 95 % 1.0 in
01:52 7.9 °F 7.1 °F 1013.4 in WSW 4.8 mph 8.0 mph 95 % 1.0 in
02:02 7.8 °F 7.0 °F 1013.4 in SW 9.7 mph 9.7 mph 95 % 1.0 in
02:07 7.8 °F 7.0 °F 1013.4 in SW 3.2 mph 9.7 mph 95 % 0.8 in
02:12 7.8 °F 7.0 °F 1013.1 in SW 1.6 mph 9.7 mph 95 % 1.0 in
02:17 7.8 °F 7.0 °F 1013.4 in WSW 4.8 mph 9.7 mph 95 % 0.8 in
02:22 7.8 °F 7.0 °F 1013.1 in SW 4.8 mph 9.7 mph 95 % 0.8 in
02:27 7.7 °F 6.9 °F 1013.1 in WSW 4.8 mph 9.7 mph 95 % 0.8 in
02:32 7.7 °F 7.1 °F 1013.1 in West 4.8 mph 9.7 mph 96 % 0.8 in
02:42 7.8 °F 7.2 °F 1013.1 in WSW 1.6 mph 9.7 mph 96 % 0.8 in
02:52 7.8 °F 7.2 °F 1012.8 in SW 3.2 mph 6.4 mph 96 % 0.8 in
03:02 7.8 °F 7.2 °F 1012.8 in West 3.2 mph 6.4 mph 96 % 0.8 in
03:12 7.8 °F 7.2 °F 1012.8 in SW 1.6 mph 6.4 mph 96 % 0.5 in
03:17 7.9 °F 7.3 °F 1012.8 in SSW 1.6 mph 6.4 mph 96 % 0.8 in
03:22 7.9 °F 7.3 °F 1012.8 in SW 1.6 mph 6.4 mph 96 % 0.8 in
03:32 8.0 °F 7.4 °F 1012.8 in SW 3.2 mph 6.4 mph 96 % 0.8 in
03:42 8.1 °F 7.5 °F 1012.8 in WSW 3.2 mph 9.7 mph 96 % 0.8 in
03:52 8.1 °F 7.5 °F 1012.8 in SW 3.2 mph 9.7 mph 96 % 1.0 in
03:57 8.1 °F 7.5 °F 1012.8 in SW 8.0 mph 14.5 mph 96 % 1.0 in
04:02 8.2 °F 7.6 °F 1012.8 in WSW 6.4 mph 14.5 mph 96 % 1.3 in
04:12 8.2 °F 7.6 °F 1012.8 in West 3.2 mph 11.3 mph 96 % 2.0 in
04:22 8.2 °F 7.6 °F 1012.8 in WNW 6.4 mph 12.9 mph 96 % 2.3 in
04:27 8.2 °F 7.6 °F 1012.8 in WNW 1.6 mph 12.9 mph 96 % 2.3 in
04:32 8.2 °F 7.6 °F 1012.8 in WNW 1.6 mph 12.9 mph 96 % 2.3 in
04:42 8.1 °F 7.3 °F 1012.8 in West 1.6 mph 6.4 mph 95 % 2.3 in
04:47 8.1 °F 7.3 °F 1012.8 in Calm   9.7 mph 95 % 2.0 in
04:52 8.1 °F 7.3 °F 1012.8 in WSW 3.2 mph 9.7 mph 95 % 2.0 in
04:57 8.0 °F 7.2 °F 1012.8 in West 6.4 mph 9.7 mph 95 % 2.0 in
05:02 8.0 °F 7.2 °F 1012.8 in West 4.8 mph 9.7 mph 95 % 2.0 in
05:12 7.9 °F 7.0 °F 1012.8 in Calm   8.0 mph 94 % 1.3 in
05:22 7.9 °F 7.0 °F 1013.1 in West 4.8 mph 8.0 mph 94 % 1.0 in
05:32 7.9 °F 7.0 °F 1013.1 in West 3.2 mph 11.3 mph 94 % 0.8 in
05:37 7.9 °F 7.0 °F 1013.1 in WNW 1.6 mph 11.3 mph 94 % 0.5 in
05:42 7.8 °F 6.9 °F 1013.1 in Calm   11.3 mph 94 % 0.5 in
05:52 7.7 °F 6.8 °F 1013.1 in SW 1.6 mph 6.4 mph 94 % 0.5 in
05:57 7.6 °F 6.7 °F 1012.8 in SW 1.6 mph 4.8 mph 94 % 0.5 in
06:02 7.6 °F 6.5 °F 1012.8 in WSW 1.6 mph 4.8 mph 93 % 0.5 in
06:12 7.4 °F 6.3 °F 1013.1 in WNW 1.6 mph 4.8 mph 93 % 0.5 in
06:17 7.4 °F 6.3 °F 1013.4 in West 1.6 mph 3.2 mph 93 % 0.3 in
06:22 7.3 °F 6.4 °F 1013.4 in WNW 6.4 mph 6.4 mph 94 % 0.3 in
06:32 7.3 °F 6.4 °F 1013.8 in West 3.2 mph 8.0 mph 94 % 0.3 in
06:42 7.4 °F 6.5 °F 1013.4 in West 6.4 mph 8.0 mph 94 % 0.0 in
06:47 7.4 °F 6.5 °F 1013.8 in West 4.8 mph 8.0 mph 94 % 0.0 in
06:52 7.4 °F 6.5 °F 1013.8 in West 4.8 mph 8.0 mph 94 % 0.0 in
07:02 7.4 °F 6.5 °F 1013.8 in West 1.6 mph 8.0 mph 94 % 0.0 in
07:12 7.3 °F 6.4 °F 1013.8 in WNW 3.2 mph 8.0 mph 94 % 0.0 in
07:17 7.3 °F 6.2 °F 1014.1 in West 3.2 mph 6.4 mph 93 % 0.0 in
07:22 7.2 °F 6.3 °F 1014.1 in West 1.6 mph 6.4 mph 94 % 0.0 in
07:32 7.2 °F 6.1 °F 1014.1 in West 3.2 mph 6.4 mph 93 % 0.0 in
07:37 7.3 °F 6.1 °F 1014.1 in WNW 4.8 mph 8.0 mph 92 % 0.0 in
07:42 7.3 °F 6.1 °F 1014.4 in WNW 1.6 mph 8.0 mph 92 % 0.0 in
07:47 7.3 °F 6.1 °F 1014.4 in West 3.2 mph 8.0 mph 92 % 0.0 in
07:52 7.3 °F 6.1 °F 1014.4 in WNW 12.9 mph 12.9 mph 92 % 0.0 in
07:57 7.3 °F 6.1 °F 1014.4 in West 8.0 mph 9.7 mph 92 % 0.0 in
08:07 7.2 °F 5.8 °F 1014.4 in West 9.7 mph 12.9 mph 91 % 0.0 in
08:12 7.2 °F 5.8 °F 1014.8 in WNW 4.8 mph 12.9 mph 91 % 0.0 in
08:17 7.1 °F 5.7 °F 1014.8 in WNW 12.9 mph 12.9 mph 91 % 0.0 in
08:22 7.1 °F 5.6 °F 1014.8 in WNW 8.0 mph 12.9 mph 90 % 0.0 in
08:32 6.9 °F 5.4 °F 1015.1 in West 6.4 mph 16.1 mph 90 % 0.0 in
08:42 6.8 °F 5.4 °F 1015.1 in West 3.2 mph 16.1 mph 91 % 0.0 in
08:52 6.7 °F 5.3 °F 1015.5 in WNW 8.0 mph 11.3 mph 91 % 0.0 in
09:02 6.8 °F 5.4 °F 1015.5 in WSW 8.0 mph 12.9 mph 91 % 0.0 in
09:12 6.8 °F 5.6 °F 1015.8 in WSW 8.0 mph 12.9 mph 92 % 0.0 in
09:17 6.8 °F 5.6 °F 1015.8 in West 11.3 mph 12.9 mph 92 % 0.0 in
09:27 7.1 °F 5.9 °F 1015.8 in West 11.3 mph 17.7 mph 92 % 0.0 in
09:32 7.1 °F 5.9 °F 1015.8 in West 8.0 mph 17.7 mph 92 % 0.0 in
09:37 7.2 °F 6.0 °F 1016.1 in WSW 9.7 mph 17.7 mph 92 % 0.0 in
09:42 7.2 °F 5.8 °F 1016.1 in West 11.3 mph 17.7 mph 91 % 0.0 in
09:52 7.1 °F 5.4 °F 1016.1 in West 12.9 mph 17.7 mph 89 % 0.0 in
10:02 7.2 °F 5.3 °F 1016.1 in WSW 12.9 mph 25.7 mph 88 % 0.0 in
10:12 7.1 °F 5.2 °F 1016.5 in WNW 12.9 mph 22.5 mph 88 % 0.0 in
10:17 7.1 °F 5.2 °F 1016.5 in West 4.8 mph 22.5 mph 88 % 0.0 in
10:22 7.1 °F 5.2 °F 1016.5 in West 9.7 mph 22.5 mph 88 % 0.0 in
10:27 7.1 °F 5.2 °F 1016.8 in NW 12.9 mph 22.5 mph 88 % 0.0 in
10:32 7.1 °F 5.1 °F 1016.8 in WSW 8.0 mph 22.5 mph 87 % 0.0 in
10:42 7.0 °F 5.0 °F 1016.8 in WNW 14.5 mph 22.5 mph 87 % 0.0 in
10:47 6.9 °F 4.9 °F 1016.8 in West 6.4 mph 27.4 mph 87 % 0.0 in
10:52 6.9 °F 4.9 °F 1017.2 in West 16.1 mph 27.4 mph 87 % 0.0 in
11:02 7.0 °F 4.8 °F 1017.2 in West 9.7 mph 27.4 mph 86 % 0.0 in
11:12 7.1 °F 5.1 °F 1017.5 in West 20.9 mph 27.4 mph 87 % 0.0 in
11:17 7.1 °F 4.7 °F 1017.5 in West 11.3 mph 25.7 mph 85 % 0.0 in
11:22 7.1 °F 4.7 °F 1017.5 in WNW 19.3 mph 25.7 mph 85 % 0.0 in
11:27 6.9 °F 4.6 °F 1017.5 in West 16.1 mph 30.6 mph 85 % 0.0 in
11:32 6.8 °F 4.5 °F 1017.5 in West 19.3 mph 30.6 mph 85 % 0.0 in
11:42 6.6 °F 4.4 °F 1017.8 in West 9.7 mph 30.6 mph 86 % 0.0 in
11:47 6.5 °F 4.3 °F 1017.8 in West 12.9 mph 27.4 mph 86 % 0.0 in
11:52 6.4 °F 4.2 °F 1017.8 in WNW 11.3 mph 27.4 mph 86 % 0.0 in
12:02 6.3 °F 4.1 °F 1018.2 in WNW 14.5 mph 25.7 mph 86 % 0.0 in
12:12 6.1 °F 3.9 °F 1018.2 in West 8.0 mph 25.7 mph 86 % 0.0 in
12:17 6.2 °F 4.0 °F 1018.2 in WSW 20.9 mph 32.2 mph 86 % 0.0 in
12:22 6.1 °F 3.9 °F 1018.2 in West 8.0 mph 32.2 mph 86 % 0.0 in
12:32 6.1 °F 3.8 °F 1018.2 in WNW 16.1 mph 24.1 mph 85 % 0.0 in
12:37 6.1 °F 3.8 °F 1018.2 in WNW 20.9 mph 25.7 mph 85 % 0.0 in
12:42 6.3 °F 4.1 °F 1018.2 in West 14.5 mph 25.7 mph 86 % 0.0 in
12:47 6.3 °F 3.8 °F 1018.5 in WNW 9.7 mph 25.7 mph 84 % 0.0 in
12:57 6.4 °F 3.6 °F 1018.5 in West 11.3 mph 27.4 mph 82 % 0.0 in
13:02 6.5 °F 3.6 °F 1018.5 in WNW 16.1 mph 27.4 mph 82 % 0.0 in
13:12 6.5 °F 3.8 °F 1018.5 in WNW 22.5 mph 29.0 mph 83 % 0.0 in
13:17 6.3 °F 3.6 °F 1018.8 in WNW 11.3 mph 29.0 mph 83 % 0.0 in
13:22 6.2 °F 3.5 °F 1018.8 in NW 14.5 mph 29.0 mph 83 % 0.0 in
13:32 6.1 °F 3.3 °F 1018.8 in WNW 17.7 mph 25.7 mph 82 % 0.0 in
13:37 6.1 °F 3.4 °F 1019.2 in NW 12.9 mph 25.7 mph 83 % 0.0 in
13:42 6.1 °F 3.4 °F 1019.2 in West 11.3 mph 25.7 mph 83 % 0.0 in
13:47 6.0 °F 3.2 °F 1019.2 in WNW 9.7 mph 24.1 mph 82 % 0.0 in
13:52 5.9 °F 3.4 °F 1019.2 in West 12.9 mph 24.1 mph 84 % 0.0 in
14:02 5.8 °F 3.3 °F 1019.5 in West 11.3 mph 17.7 mph 84 % 0.0 in
14:12 5.9 °F 3.2 °F 1019.5 in WNW 17.7 mph 22.5 mph 83 % 0.0 in
14:17 5.9 °F 3.2 °F 1019.5 in WNW 12.9 mph 25.7 mph 83 % 0.0 in
14:22 5.9 °F 3.1 °F 1019.9 in WNW 11.3 mph 25.7 mph 82 % 0.0 in
14:32 5.9 °F 3.2 °F 1019.9 in WNW 17.7 mph 25.7 mph 83 % 0.0 in
14:42 5.8 °F 3.0 °F 1019.9 in WNW 14.5 mph 24.1 mph 82 % 0.0 in
14:47 5.9 °F 3.2 °F 1019.9 in WNW 6.4 mph 20.9 mph 83 % 0.0 in
14:52 5.9 °F 3.1 °F 1020.2 in WNW 8.0 mph 20.9 mph 82 % 0.0 in
15:02 6.1 °F 3.1 °F 1020.2 in WNW 8.0 mph 22.5 mph 81 % 0.0 in
15:12 6.1 °F 3.1 °F 1020.2 in NW 6.4 mph 20.9 mph 81 % 0.0 in
15:17 6.3 °F 3.3 °F 1020.2 in West 3.2 mph 19.3 mph 81 % 0.0 in
15:22 6.4 °F 3.4 °F 1020.2 in West 9.7 mph 19.3 mph 81 % 0.0 in
15:32 6.3 °F 3.3 °F 1020.5 in WSW 9.7 mph 24.1 mph 81 % 0.0 in
15:37 6.3 °F 3.1 °F 1020.5 in WNW 12.9 mph 24.1 mph 80 % 0.0 in
15:42 6.1 °F 2.9 °F 1020.9 in West 14.5 mph 24.1 mph 80 % 0.0 in
15:52 5.9 °F 2.9 °F 1021.2 in WNW 17.7 mph 20.9 mph 81 % 0.0 in
16:02 5.9 °F 2.9 °F 1021.2 in WNW 8.0 mph 24.1 mph 81 % 0.0 in
16:12 5.8 °F 2.6 °F 1021.6 in WNW 12.9 mph 24.1 mph 80 % 0.0 in
16:17 5.8 °F 2.6 °F 1021.6 in WNW 4.8 mph 22.5 mph 80 % 0.0 in
16:22 5.8 °F 2.6 °F 1021.6 in WNW 8.0 mph 22.5 mph 80 % 0.0 in
16:27 5.7 °F 2.7 °F 1021.6 in WNW 12.9 mph 16.1 mph 81 % 0.0 in
16:32 5.6 °F 2.8 °F 1021.6 in WNW 3.2 mph 16.1 mph 82 % 0.0 in
16:37 5.6 °F 2.8 °F 1021.6 in WNW 6.4 mph 14.5 mph 82 % 0.0 in
16:42 5.5 °F 2.7 °F 1021.9 in WNW 1.6 mph 14.5 mph 82 % 0.0 in
17:02 5.2 °F 2.2 °F 1022.2 in WNW 11.3 mph 24.1 mph 81 % 0.0 in
17:12 5.0 °F 2.0 °F 1022.2 in WNW 8.0 mph 22.5 mph 81 % 0.0 in
17:17 4.8 °F 1.8 °F 1022.2 in West 1.6 mph 22.5 mph 81 % 0.0 in
17:22 4.8 °F 1.8 °F 1022.2 in NW 3.2 mph 22.5 mph 81 % 0.0 in
17:32 4.6 °F 1.8 °F 1022.6 in West 3.2 mph 16.1 mph 82 % 0.0 in
17:37 4.5 °F 1.9 °F 1022.6 in NW 6.4 mph 11.3 mph 83 % 0.0 in
17:42 4.4 °F 1.8 °F 1022.6 in WNW 6.4 mph 11.3 mph 83 % 0.0 in
17:47 4.3 °F 1.7 °F 1022.9 in WNW 3.2 mph 8.0 mph 83 % 0.0 in
17:52 4.2 °F 1.7 °F 1022.9 in Calm   8.0 mph 84 % 0.0 in
17:57 4.2 °F 1.7 °F 1022.9 in Calm   8.0 mph 84 % 0.0 in
18:02 4.1 °F 1.6 °F 1023.2 in WNW 1.6 mph 8.0 mph 84 % 0.0 in
18:07 4.1 °F 1.6 °F 1023.2 in West 3.2 mph 9.7 mph 84 % 0.0 in
18:12 4.0 °F 1.5 °F 1023.2 in West 1.6 mph 9.7 mph 84 % 0.0 in
18:17 3.9 °F 1.4 °F 1023.2 in WNW 3.2 mph 9.7 mph 84 % 0.0 in
18:22 3.8 °F 1.3 °F 1023.2 in WNW 3.2 mph 9.7 mph 84 % 0.0 in
18:37 3.8 °F 1.3 °F 1023.6 in WNW 8.0 mph 9.7 mph 84 % 0.0 in
18:42 3.8 °F 1.3 °F 1023.6 in West 8.0 mph 11.3 mph 84 % 0.0 in
18:47 3.8 °F 1.2 °F 1023.6 in WNW 6.4 mph 14.5 mph 83 % 0.0 in
18:52 3.8 °F 1.2 °F 1023.6 in WNW 4.8 mph 14.5 mph 83 % 0.0 in
18:57 3.8 °F 1.2 °F 1023.6 in West 3.2 mph 14.5 mph 83 % 0.0 in
19:02 3.8 °F 1.3 °F 1023.9 in WNW 6.4 mph 14.5 mph 84 % 0.0 in
19:12 3.9 °F 1.3 °F 1023.9 in WNW 3.2 mph 11.3 mph 83 % 0.0 in
19:17 3.9 °F 1.3 °F 1023.9 in West 1.6 mph 12.9 mph 83 % 0.0 in
19:22 3.9 °F 1.3 °F 1023.9 in WNW 1.6 mph 12.9 mph 83 % 0.0 in
19:32 3.9 °F 1.3 °F 1024.3 in NW 4.8 mph 9.7 mph 83 % 0.0 in
19:42 4.1 °F 1.5 °F 1024.3 in Calm   9.7 mph 83 % 0.0 in
19:52 3.9 °F 1.4 °F 1024.6 in WNW 1.6 mph 6.4 mph 84 % 0.0 in
20:02 3.9 °F 1.4 °F 1024.6 in West 1.6 mph 11.3 mph 84 % 0.0 in
20:07 3.8 °F 1.2 °F 1024.6 in West 8.0 mph 9.7 mph 83 % 0.0 in
20:12 3.8 °F 1.2 °F 1024.6 in WSW 8.0 mph 9.7 mph 83 % 0.0 in
20:17 3.7 °F 1.1 °F 1024.6 in WSW 4.8 mph 9.7 mph 83 % 0.0 in
20:22 3.6 °F 1.0 °F 1024.6 in West 1.6 mph 9.7 mph 83 % 0.0 in
20:32 3.3 °F 0.7 °F 1024.6 in Calm   8.0 mph 83 % 0.0 in
20:37 3.2 °F 0.6 °F 1024.9 in WSW 1.6 mph 3.2 mph 83 % 0.0 in
20:42 3.2 °F 0.6 °F 1024.9 in Calm   3.2 mph 83 % 0.0 in
20:47 3.1 °F 0.5 °F 1024.9 in Calm   3.2 mph 83 % 0.0 in
20:57 2.8 °F 0.4 °F 1024.9 in WSW 1.6 mph 3.2 mph 84 % 0.0 in
21:02 2.9 °F 0.5 °F 1025.3 in WSW 1.6 mph 3.2 mph 84 % 0.0 in
21:12 2.9 °F 0.3 °F 1025.3 in Calm   4.8 mph 83 % 0.0 in
21:17 2.9 °F 0.3 °F 1025.3 in Calm   3.2 mph 83 % 0.0 in
21:22 2.9 °F 0.3 °F 1025.3 in Calm   3.2 mph 83 % 0.0 in
21:27 2.9 °F 0.3 °F 1025.3 in SW 1.6 mph 1.6 mph 83 % 0.0 in
21:32 2.9 °F 0.3 °F 1025.3 in WSW 1.6 mph 1.6 mph 83 % 0.0 in
21:42 2.8 °F 0.4 °F 1025.3 in WSW 1.6 mph 4.8 mph 84 % 0.0 in
21:47 2.9 °F 0.5 °F 1025.6 in West 3.2 mph 4.8 mph 84 % 0.0 in
21:57 3.0 °F 0.6 °F 1025.6 in West 1.6 mph 6.4 mph 84 % 0.0 in
22:02 2.9 °F 0.5 °F 1025.6 in WSW 3.2 mph 6.4 mph 84 % 0.0 in
22:12 3.0 °F 0.6 °F 1025.6 in Calm   4.8 mph 84 % 0.0 in
22:17 2.9 °F 0.5 °F 1025.6 in SW 1.6 mph 4.8 mph 84 % 0.0 in
22:27 2.2 °F 0.1 °F 1025.6 in Calm   3.2 mph 86 % 0.0 in
22:42 1.8 °F 0.0 °F 1026.0 in Calm   3.2 mph 88 % 0.0 in
22:52 1.6 °F 0.0 °F 1026.0 in Calm     89 % 0.0 in
23:02 1.6 °F 0.1 °F 1026.0 in SSE 1.6 mph   90 % 0.0 in
23:12 1.6 °F 0.1 °F 1026.0 in Calm   1.6 mph 90 % 0.0 in
23:17 1.5 °F -0.1 °F 1026.0 in SSE 1.6 mph 1.6 mph 89 % 0.0 in
23:22 1.4 °F -0.1 °F 1026.0 in Calm   1.6 mph 90 % 0.0 in
23:32 1.4 °F -0.1 °F 1026.0 in SE 1.6 mph 3.2 mph 90 % 0.0 in
23:42 1.3 °F 0.0 °F 1026.0 in Calm   3.2 mph 91 % 0.0 in
23:47 1.3 °F 0.0 °F 1026.0 in Calm   1.6 mph 91 % 0.0 in
23:52 1.3 °F 0.0 °F 1026.0 in Calm   1.6 mph 91 % 0.0 in
Meteo18
Compliments of Weather Underground - 4 mb

Script developed by  Jim McMurry - jmcmurry@mwt.net Adapted for the template by  Wim van der Kuil - Leuven-Template.eu

You find our weather info also at:

European Weather Network

Weather Underground

Equipment we use:

Weather-station
Davis Vue

Weather-program
Meteobridge

Weather-server
Raspberry PI 2 B+

Provider
1 and 1

Davis Vue

Meteobridge

Raspberry PI 2 B+

1 and 1